Terminal Aerodrome Forecast
Issued by NWS Tampa Bay Area, FL

Home | Current Version | Previous Version | Text Only | Print | Product List | Glossary On
Versions: 1 2 3 4 5 6 7 8 9 10 11 12 13 14 15 16 17
486
FTUS42 KTBW 280520
TAFFMY
TAF
KFMY 280520Z 2806/2906 11004KT P6SM FEW070 SCT200
     FM281800 30005KT P6SM VCTS BKN035CB
     FM290100 04005KT P6SM SCT035 BKN090=

USA.gov is the U.S. government's official web portal to all federal, state and local government web resources and services.